Terminal Aerodrome Forecast
Issued by NWS

Home | Current Version | Previous Version | Graphics & Text | Print | Product List | Glossary On
Versions: 1 2 3 4 5 6 7 8 9 10 11 12 13 14 15 16 17 18
000
FTUS41 KCLE 162100 CCA
TAFFDY
TAF COR
KFDY 162132Z 1621/1718 24015KT P6SM OVC008
     FM170200 25015G25KT P6SM OVC008
     FM170600 25015G25KT P6SM OVC015
     FM171300 27015G25KT P6SM SCT015 BKN025=

USA.gov is the U.S. government's official web portal to all federal, state and local government web resources and services.